Metar-Polska

Metar-Polska (z pełnej godziny)


434
SAPL50 SOWR 200100
METAR EPBY 200100Z 00000KT CAVOK 09/07 Q1023=
METAR EPGD 200100Z 00000KT 9999 FEW025 SCT045 11/10 Q1023=
METAR EPKK 200100Z 26001KT 0900 FG FEW030 10/10 Q1022=
METAR EPKT 200100Z 00000KT 0400 R27/P2000 R09/0400 BCFG
      NSC 08/08 Q1023=
METAR EPLL 200100Z 01002KT 4000 MIFG BR NSC 10/09 Q1023=
METAR EPPO 200100Z 17001KT CAVOK 10/08 Q1022=
METAR EPRZ 200100Z 28006KT 9999 BKN015 15/15 Q1021=
METAR EPSC 200100Z 15006KT CAVOK 13/12 Q1021=
METAR EPWA 200100Z 32006KT CAVOK 12/08 Q1022 NOSIG=
METAR EPWR 200100Z VRB01KT 9999 MIFG NSC 09/08 Q1023=




Instytut Meteorologii i Gospodarki Wodnej nie ponosi odpowiedzialności za jakiekolwiek straty spowodowane stosowaniem danych przedstawionych w serwisie WWW.
Dane i Produkty chronione prawem autorskim IMGW. Jakiekolwiek wykorzystywanie lub rozpowszechnianie zabronione.


Powrót do listy produktów